地図

経路データ

SID SEASON NUMBER BASIN SUBBASIN NAME ISO_TIME NATURE LAT LON WMO_WIND WMO_PRES WMO_AGENCY TRACK_TYPE DIST2LAND LANDFALL IFLAG USA_AGENCY USA_ATCF_ID USA_LAT USA_LON USA_RECORD USA_STATUS USA_WIND USA_PRES USA_SSHS USA_R34_NE USA_R34_SE USA_R34_SW USA_R34_NW USA_R50_NE USA_R50_SE USA_R50_SW USA_R50_NW USA_R64_NE USA_R64_SE USA_R64_SW USA_R64_NW USA_POCI USA_ROCI USA_RMW USA_EYE TOKYO_LAT TOKYO_LON TOKYO_GRADE TOKYO_WIND TOKYO_PRES TOKYO_R50_DIR TOKYO_R50_LONG TOKYO_R50_SHORT TOKYO_R30_DIR TOKYO_R30_LONG TOKYO_R30_SHORT TOKYO_LAND CMA_LAT CMA_LON CMA_CAT CMA_WIND CMA_PRES HKO_LAT HKO_LON HKO_CAT HKO_WIND HKO_PRES NEWDELHI_LAT NEWDELHI_LON NEWDELHI_GRADE NEWDELHI_WIND NEWDELHI_PRES NEWDELHI_CI NEWDELHI_DP NEWDELHI_POCI REUNION_LAT REUNION_LON REUNION_TYPE REUNION_WIND REUNION_PRES REUNION_TNUM REUNION_CI REUNION_RMW REUNION_R34_NE REUNION_R34_SE REUNION_R34_SW REUNION_R34_NW REUNION_R50_NE REUNION_R50_SE REUNION_R50_SW REUNION_R50_NW REUNION_R64_NE REUNION_R64_SE REUNION_R64_SW REUNION_R64_NW BOM_LAT BOM_LON BOM_TYPE BOM_WIND BOM_PRES BOM_TNUM BOM_CI BOM_RMW BOM_R34_NE BOM_R34_SE BOM_R34_SW BOM_R34_NW BOM_R50_NE BOM_R50_SE BOM_R50_SW BOM_R50_NW BOM_R64_NE BOM_R64_SE BOM_R64_SW BOM_R64_NW BOM_ROCI BOM_POCI BOM_EYE BOM_POS_METHOD BOM_PRES_METHOD NADI_LAT NADI_LON NADI_CAT NADI_WIND NADI_PRES WELLINGTON_LAT WELLINGTON_LON WELLINGTON_WIND WELLINGTON_PRES DS824_LAT DS824_LON DS824_STAGE DS824_WIND DS824_PRES TD9636_LAT TD9636_LON TD9636_STAGE TD9636_WIND TD9636_PRES TD9635_LAT TD9635_LON TD9635_WIND TD9635_PRES TD9635_ROCI NEUMANN_LAT NEUMANN_LON NEUMANN_CLASS NEUMANN_WIND NEUMANN_PRES MLC_LAT MLC_LON MLC_CLASS MLC_WIND MLC_PRES USA_GUST BOM_GUST BOM_GUST_PER REUNION_GUST REUNION_GUST_PER USA_SEAHGT USA_SEARAD_NE USA_SEARAD_SE USA_SEARAD_SW USA_SEARAD_NW STORM_SPEED STORM_DIR
1899239N20087 1899 27 NI BB NOT_NAMED 1899-08-27 00:00:00 TS 19.5000 86.5000 main 56 54 _________O____ -1 19.5000 86.5000 TC 30 2 300
1899239N20087 1899 27 NI BB NOT_NAMED 1899-08-27 03:00:00 TS 19.5400 86.4250 main 54 39 _________PO___ -1 19.5600 86.3875 TC 30 19.5000 86.5000 1 2 298
1899239N20087 1899 27 NI BB NOT_NAMED 1899-08-27 06:00:00 TS 19.5814 86.3390 main 39 39 _________OP___ -1 19.6000 86.3000 TC 30 19.5534 86.3974 1 2 294
1899239N20087 1899 27 NI BB NOT_NAMED 1899-08-27 09:00:00 TS 19.6023 86.2739 main 39 35 _________PP___ -1 19.6075 86.2500 TC 30 19.5954 86.3058 1 1 283
1899239N20087 1899 27 NI BB NOT_NAMED 1899-08-27 12:00:00 TS 19.6074 86.2182 main 35 35 _________OP___ -1 19.6000 86.2000 TC 30 19.6147 86.2363 1 1 267
1899239N20087 1899 27 NI BB NOT_NAMED 1899-08-27 15:00:00 TS 19.5963 86.1500 main 35 33 _________PO___ -1 19.5925 86.1000 TC 30 19.6000 86.2000 1 1 255
1899239N20087 1899 27 NI BB NOT_NAMED 1899-08-27 18:00:00 TS 19.5756 86.0984 main 33 33 _________OP___ -1 19.6000 86.0000 TC 30 19.5513 86.1969 1 1 217
1899239N20087 1899 27 NI BB NOT_NAMED 1899-08-27 21:00:00 TS 19.5518 86.0999 main 33 30 _________PP___ -1 19.5897 86.0170 TC 30 19.5140 86.1827 1 1 299
1899239N20087 1899 27 NI BB NOT_NAMED 1899-08-28 00:00:00 TS 19.6223 86.0011 main 30 0 _________OP___ -1 19.7000 85.9000 TC 30 19.5447 86.1023 1 5 307
1899239N20087 1899 27 NI BB NOT_NAMED 1899-08-28 03:00:00 TS 19.8627 85.6589 main 0 0 _________PO___ -1 20.0254 85.4178 TC 30 19.7000 85.9000 1 10 308
1899239N20087 1899 27 NI BB NOT_NAMED 1899-08-28 06:00:00 TS 20.2615 85.1269 main 0 0 _________OP___ -1 20.5000 84.8000 TC 30 20.0230 85.4538 1 13 311
1899239N20087 1899 27 NI BB NOT_NAMED 1899-08-28 09:00:00 TS 20.7463 84.5804 main 0 0 _________PP___ -1 21.0200 84.2700 TC 30 20.4727 84.8909 1 15 316
1899239N20087 1899 27 NI BB NOT_NAMED 1899-08-28 12:00:00 TS 21.3053 84.0536 main 0 0 _________OP___ -1 21.6000 83.8000 TC 30 21.0107 84.3071 1 15 321
1899239N20087 1899 27 NI BB NOT_NAMED 1899-08-28 15:00:00 TS 21.8925 83.5913 main 0 0 _________PO___ -1 22.1850 83.3826 TC 30 21.6000 83.8000 1 14 329
1899239N20087 1899 27 NI BB NOT_NAMED 1899-08-28 18:00:00 TS 22.5209 83.2749 main 0 0 _________OP___ -1 22.8000 83.1000 TC 30 22.2419 83.4498 1 14 341
1899239N20087 1899 27 NI BB NOT_NAMED 1899-08-28 21:00:00 TS 23.2056 83.0900 main 0 0 _________PP___ -1 23.4948 82.9821 TC 30 22.9164 83.1979 1 13 350
1899239N20087 1899 27 NI BB NOT_NAMED 1899-08-29 00:00:00 TS 23.8289 83.0235 main 0 0 _________OP___ -1 24.1000 83.0000 TC 30 23.5578 83.0469 1 11 357
1899239N20087 1899 27 NI BB NOT_NAMED 1899-08-29 03:00:00 TS 24.2837 83.0312 main 0 0 _________PO___ -1 24.4674 83.0624 TC 30 24.1000 83.0000 1 8 6
1899239N20087 1899 27 NI BB NOT_NAMED 1899-08-29 06:00:00 TS 24.5909 83.1118 main 0 0 _________OP___ -1 24.7000 83.2000 TC 30 24.4818 83.0236 1 6 20
1899239N20087 1899 27 NI BB NOT_NAMED 1899-08-29 09:00:00 TS 24.8397 83.2592 main 0 0 _________PP___ -1 24.9224 83.3701 TC 30 24.7570 83.1484 1 5 37
1899239N20087 1899 27 NI BB NOT_NAMED 1899-08-29 12:00:00 TS 25.0269 83.4746 main 0 0 _________OP___ -1 25.1000 83.6000 TC 30 24.9537 83.3491 1 6 52
1899239N20087 1899 27 NI BB NOT_NAMED 1899-08-29 15:00:00 TS 25.1863 83.7425 main 0 0 _________PO___ -1 25.2725 83.8849 TC 30 25.1000 83.6000 1 6 61
1899239N20087 1899 27 NI BB NOT_NAMED 1899-08-29 18:00:00 TS 25.2972 84.0163 main 0 0 _________OP___ -1 25.4000 84.2000 TC 30 25.2201 83.8785 1 5 69
1899239N20087 1899 27 NI BB NOT_NAMED 1899-08-29 21:00:00 TS 25.3810 84.3072 main 0 0 _________PP___ -1 25.4676 84.5051 TC 30 25.3232 84.1753 1 5 74
1899239N20087 1899 27 NI BB NOT_NAMED 1899-08-30 00:00:00 TS 25.4431 84.5897 main 0 0 _________OP___ -1 25.5000 84.8000 TC 30 25.4147 84.4845 1 5 75
1899239N20087 1899 27 NI BB NOT_NAMED 1899-08-30 03:00:00 NR 25.5000 84.8000 main 0 __________O___ -1 TC 25.5000 84.8000 1 4 73

IBTrACS Databaseについて

本データベースは、米国NOAAが公開する1842年以降の世界の熱帯低気圧のベストトラックデータアーカイブInternational Best Track Archive for Climate Stewardship (IBTrACS)を、ウェブで閲覧しやすい形式に変換したものです。

最終更新日:2021-12-01